KTTD/TTD METAR and TAF weather

Enter ICAO airport designator
Station Type Date Time Source
KTTD METAR 2021/03/08 01:53 UTC NOAA

KTTD 080153Z 10SM SCT044 OVC055 07/03 A3020 RMK AO2 RAE0058 TSE0058 SLP225 P0000 T00670028 $


Station Type Date Time Source
KTTD Decoded METAR 2021/03/08 01:53 UTC NOAA

PORTLAND-TROUTDALE AIRPORT, OR, United States (KTTD) 45-33N 122-25W 14M
Mar 07, 2021 - 08:53 PM EST / 2021.03.08 0153 UTC
Visibility: 10 mile(s):0
Sky conditions: overcast
Precipitation last hour: A trace
Temperature: 44.1 F (6.7 C)
Dew Point: 37.0 F (2.8 C)
Relative Humidity: 76%
Pressure (altimeter): 30.2 in. Hg (1022 hPa)
ob: KTTD 080153Z 10SM SCT044 OVC055 07/03 A3020 RMK AO2 RAE0058 TSE0058 SLP225 P0000 T00670028
cycle: 2

Station Type Date Time Source
KTTD TAF 2021/03/07 23:22 UTC NOAA

TAF
AMD KTTD 072320Z 0723/0818 21012KT P6SM TSRA SCT021CB BKN060
FM080300 VRB03KT P6SM BKN120
FM081100 09004KT P6SM VCFG SCT025 BKN040

Example: see airport list